sensor_id;sensor_type;location;lat;lon;timestamp;P1;durP1;ratioP1;P2;durP2;ratioP2
44078;SDS011;29744;49.078;12.878;2023-01-25T00:03:49;2.33;;;1.40;;
44078;SDS011;29744;49.078;12.878;2023-01-25T00:08:49;2.08;;;1.42;;
44078;SDS011;29744;49.078;12.878;2023-01-25T00:13:54;2.50;;;1.50;;
44078;SDS011;29744;49.078;12.878;2023-01-25T00:18:55;2.45;;;1.52;;
44078;SDS011;29744;49.078;12.878;2023-01-25T00:23:55;2.13;;;1.40;;
44078;SDS011;29744;49.078;12.878;2023-01-25T00:28:56;2.10;;;1.20;;
44078;SDS011;29744;49.078;12.878;2023-01-25T00:34:01;2.28;;;1.40;;
44078;SDS011;29744;49.078;12.878;2023-01-25T00:39:12;1.85;;;1.33;;
44078;SDS011;29744;49.078;12.878;2023-01-25T00:44:13;2.38;;;1.15;;
44078;SDS011;29744;49.078;12.878;2023-01-25T00:49:20;2.00;;;1.20;;
44078;SDS011;29744;49.078;12.878;2023-01-25T00:54:23;2.67;;;1.50;;
44078;SDS011;29744;49.078;12.878;2023-01-25T00:59:24;2.25;;;1.30;;
44078;SDS011;29744;49.078;12.878;2023-01-25T01:04:24;2.50;;;1.17;;
44078;SDS011;29744;49.078;12.878;2023-01-25T01:09:25;2.10;;;1.15;;
44078;SDS011;29744;49.078;12.878;2023-01-25T01:14:25;2.28;;;1.30;;
44078;SDS011;29744;49.078;12.878;2023-01-25T01:19:25;1.67;;;1.20;;
44078;SDS011;29744;49.078;12.878;2023-01-25T01:24:26;2.60;;;1.40;;
44078;SDS011;29744;49.078;12.878;2023-01-25T01:29:26;1.92;;;1.20;;
44078;SDS011;29744;49.078;12.878;2023-01-25T01:34:26;1.98;;;1.20;;
44078;SDS011;29744;49.078;12.878;2023-01-25T01:39:27;1.83;;;1.13;;
44078;SDS011;29744;49.078;12.878;2023-01-25T01:50:12;2.00;;;1.20;;
44078;SDS011;29744;49.078;12.878;2023-01-25T01:55:20;1.95;;;1.10;;
44078;SDS011;29744;49.078;12.878;2023-01-25T02:00:24;2.20;;;1.30;;
44078;SDS011;29744;49.078;12.878;2023-01-25T02:10:29;2.10;;;1.13;;
44078;SDS011;29744;49.078;12.878;2023-01-25T02:15:36;2.28;;;1.27;;
44078;SDS011;29744;49.078;12.878;2023-01-25T02:20:41;2.17;;;1.20;;
44078;SDS011;29744;49.078;12.878;2023-01-25T02:25:43;1.60;;;1.13;;
44078;SDS011;29744;49.078;12.878;2023-01-25T02:30:44;1.95;;;1.10;;
44078;SDS011;29744;49.078;12.878;2023-01-25T02:35:48;2.20;;;1.30;;
44078;SDS011;29744;49.078;12.878;2023-01-25T02:40:54;1.85;;;1.10;;
44078;SDS011;29744;49.078;12.878;2023-01-25T02:46:15;1.83;;;1.10;;
44078;SDS011;29744;49.078;12.878;2023-01-25T02:51:22;2.22;;;1.20;;
44078;SDS011;29744;49.078;12.878;2023-01-25T02:56:24;1.83;;;1.10;;
44078;SDS011;29744;49.078;12.878;2023-01-25T03:01:26;1.73;;;0.98;;
44078;SDS011;29744;49.078;12.878;2023-01-25T03:06:26;1.75;;;1.10;;
44078;SDS011;29744;49.078;12.878;2023-01-25T03:11:26;1.80;;;1.00;;
44078;SDS011;29744;49.078;12.878;2023-01-25T03:16:26;1.80;;;1.00;;
44078;SDS011;29744;49.078;12.878;2023-01-25T03:21:27;2.13;;;1.20;;
44078;SDS011;29744;49.078;12.878;2023-01-25T03:26:27;1.58;;;0.93;;
44078;SDS011;29744;49.078;12.878;2023-01-25T03:31:28;2.25;;;1.30;;
44078;SDS011;29744;49.078;12.878;2023-01-25T03:36:28;1.77;;;1.10;;
44078;SDS011;29744;49.078;12.878;2023-01-25T03:41:28;1.95;;;1.10;;
44078;SDS011;29744;49.078;12.878;2023-01-25T03:46:29;2.08;;;1.10;;
44078;SDS011;29744;49.078;12.878;2023-01-25T03:51:29;2.13;;;1.05;;
44078;SDS011;29744;49.078;12.878;2023-01-25T03:56:29;2.08;;;1.20;;
44078;SDS011;29744;49.078;12.878;2023-01-25T04:01:29;2.00;;;1.10;;
44078;SDS011;29744;49.078;12.878;2023-01-25T04:06:30;2.13;;;1.20;;
44078;SDS011;29744;49.078;12.878;2023-01-25T04:11:30;1.70;;;1.00;;
44078;SDS011;29744;49.078;12.878;2023-01-25T04:16:30;1.50;;;0.90;;
44078;SDS011;29744;49.078;12.878;2023-01-25T04:21:31;2.00;;;1.20;;
44078;SDS011;29744;49.078;12.878;2023-01-25T04:26:31;1.85;;;1.08;;
44078;SDS011;29744;49.078;12.878;2023-01-25T04:31:31;1.77;;;1.00;;
44078;SDS011;29744;49.078;12.878;2023-01-25T04:36:32;2.03;;;1.20;;
44078;SDS011;29744;49.078;12.878;2023-01-25T04:41:32;2.03;;;1.05;;
44078;SDS011;29744;49.078;12.878;2023-01-25T04:46:32;1.55;;;1.00;;
44078;SDS011;29744;49.078;12.878;2023-01-25T04:51:33;1.38;;;0.90;;
44078;SDS011;29744;49.078;12.878;2023-01-25T04:56:33;1.75;;;1.08;;
44078;SDS011;29744;49.078;12.878;2023-01-25T05:01:34;1.38;;;0.90;;
44078;SDS011;29744;49.078;12.878;2023-01-25T05:06:34;1.35;;;0.88;;
44078;SDS011;29744;49.078;12.878;2023-01-25T05:11:34;1.50;;;0.82;;
44078;SDS011;29744;49.078;12.878;2023-01-25T05:16:35;1.88;;;0.90;;
44078;SDS011;29744;49.078;12.878;2023-01-25T05:21:35;1.50;;;0.90;;
44078;SDS011;29744;49.078;12.878;2023-01-25T05:26:54;1.00;;;0.77;;
44078;SDS011;29744;49.078;12.878;2023-01-25T05:32:03;1.42;;;0.82;;
44078;SDS011;29744;49.078;12.878;2023-01-25T05:37:09;1.35;;;0.80;;
44078;SDS011;29744;49.078;12.878;2023-01-25T05:42:11;1.60;;;0.90;;
44078;SDS011;29744;49.078;12.878;2023-01-25T05:47:13;1.33;;;0.90;;
44078;SDS011;29744;49.078;12.878;2023-01-25T05:52:15;1.30;;;0.80;;
44078;SDS011;29744;49.078;12.878;2023-01-25T05:57:16;1.77;;;0.90;;
44078;SDS011;29744;49.078;12.878;2023-01-25T06:02:16;1.45;;;0.70;;
44078;SDS011;29744;49.078;12.878;2023-01-25T06:07:16;1.52;;;1.00;;
44078;SDS011;29744;49.078;12.878;2023-01-25T06:12:20;1.13;;;0.90;;
44078;SDS011;29744;49.078;12.878;2023-01-25T06:17:20;1.75;;;0.93;;
44078;SDS011;29744;49.078;12.878;2023-01-25T06:22:21;1.17;;;0.70;;
44078;SDS011;29744;49.078;12.878;2023-01-25T06:27:21;1.52;;;0.95;;
44078;SDS011;29744;49.078;12.878;2023-01-25T06:32:21;1.02;;;0.63;;
44078;SDS011;29744;49.078;12.878;2023-01-25T06:37:24;1.80;;;1.02;;
44078;SDS011;29744;49.078;12.878;2023-01-25T06:42:25;2.03;;;1.00;;
44078;SDS011;29744;49.078;12.878;2023-01-25T06:47:25;1.75;;;1.10;;
44078;SDS011;29744;49.078;12.878;2023-01-25T06:52:25;3.17;;;0.95;;
44078;SDS011;29744;49.078;12.878;2023-01-25T06:57:26;2.35;;;1.10;;
44078;SDS011;29744;49.078;12.878;2023-01-25T07:02:26;1.63;;;0.90;;
44078;SDS011;29744;49.078;12.878;2023-01-25T07:07:26;1.20;;;0.85;;
44078;SDS011;29744;49.078;12.878;2023-01-25T07:12:29;2.35;;;0.80;;
44078;SDS011;29744;49.078;12.878;2023-01-25T07:17:30;1.60;;;1.00;;
44078;SDS011;29744;49.078;12.878;2023-01-25T07:22:30;1.83;;;0.90;;
44078;SDS011;29744;49.078;12.878;2023-01-25T07:27:33;1.77;;;0.90;;
44078;SDS011;29744;49.078;12.878;2023-01-25T07:32:34;1.70;;;0.90;;
44078;SDS011;29744;49.078;12.878;2023-01-25T07:37:34;1.45;;;0.88;;
44078;SDS011;29744;49.078;12.878;2023-01-25T07:42:34;1.10;;;0.88;;
44078;SDS011;29744;49.078;12.878;2023-01-25T07:47:35;2.20;;;1.10;;
44078;SDS011;29744;49.078;12.878;2023-01-25T07:52:35;1.15;;;0.80;;
44078;SDS011;29744;49.078;12.878;2023-01-25T07:57:35;7.72;;;4.63;;
44078;SDS011;29744;49.078;12.878;2023-01-25T08:02:36;7.50;;;5.43;;
44078;SDS011;29744;49.078;12.878;2023-01-25T08:07:36;8.05;;;5.00;;
44078;SDS011;29744;49.078;12.878;2023-01-25T08:12:36;6.93;;;4.95;;
44078;SDS011;29744;49.078;12.878;2023-01-25T08:17:37;6.88;;;4.53;;
44078;SDS011;29744;49.078;12.878;2023-01-25T08:22:37;6.20;;;4.30;;
44078;SDS011;29744;49.078;12.878;2023-01-25T08:27:38;5.68;;;3.95;;
44078;SDS011;29744;49.078;12.878;2023-01-25T08:32:38;7.45;;;4.00;;
44078;SDS011;29744;49.078;12.878;2023-01-25T08:37:38;6.60;;;3.90;;
44078;SDS011;29744;49.078;12.878;2023-01-25T08:42:39;5.50;;;3.65;;
44078;SDS011;29744;49.078;12.878;2023-01-25T08:47:42;5.55;;;3.58;;
44078;SDS011;29744;49.078;12.878;2023-01-25T08:52:42;6.10;;;3.90;;
44078;SDS011;29744;49.078;12.878;2023-01-25T08:57:42;5.55;;;3.33;;
44078;SDS011;29744;49.078;12.878;2023-01-25T09:02:43;5.80;;;3.45;;
44078;SDS011;29744;49.078;12.878;2023-01-25T09:07:43;4.57;;;3.10;;
44078;SDS011;29744;49.078;12.878;2023-01-25T09:12:44;5.60;;;3.10;;
44078;SDS011;29744;49.078;12.878;2023-01-25T09:17:44;5.60;;;3.03;;
44078;SDS011;29744;49.078;12.878;2023-01-25T09:22:45;4.90;;;3.20;;
44078;SDS011;29744;49.078;12.878;2023-01-25T09:27:47;4.65;;;2.90;;
44078;SDS011;29744;49.078;12.878;2023-01-25T09:32:49;5.00;;;2.92;;
44078;SDS011;29744;49.078;12.878;2023-01-25T09:37:50;4.35;;;2.78;;
44078;SDS011;29744;49.078;12.878;2023-01-25T09:53:41;7.13;;;2.92;;
44078;SDS011;29744;49.078;12.878;2023-01-25T10:14:24;7.35;;;2.97;;
44078;SDS011;29744;49.078;12.878;2023-01-25T10:19:38;8.48;;;3.17;;
44078;SDS011;29744;49.078;12.878;2023-01-25T10:30:27;8.57;;;3.10;;
44078;SDS011;29744;49.078;12.878;2023-01-25T10:35:28;7.10;;;2.75;;
44078;SDS011;29744;49.078;12.878;2023-01-25T10:45:40;7.57;;;2.78;;
44078;SDS011;29744;49.078;12.878;2023-01-25T10:50:44;6.72;;;2.75;;
44078;SDS011;29744;49.078;12.878;2023-01-25T11:01:13;8.27;;;2.63;;
44078;SDS011;29744;49.078;12.878;2023-01-25T11:06:38;5.20;;;2.47;;
44078;SDS011;29744;49.078;12.878;2023-01-25T11:12:14;7.65;;;2.83;;
44078;SDS011;29744;49.078;12.878;2023-01-25T11:22:47;5.28;;;2.60;;
44078;SDS011;29744;49.078;12.878;2023-01-25T11:27:49;3.92;;;1.92;;
44078;SDS011;29744;49.078;12.878;2023-01-25T11:32:49;4.10;;;2.30;;
44078;SDS011;29744;49.078;12.878;2023-01-25T11:48:51;7.25;;;2.28;;
44078;SDS011;29744;49.078;12.878;2023-01-25T11:59:32;5.10;;;2.33;;
44078;SDS011;29744;49.078;12.878;2023-01-25T12:27:39;5.95;;;2.10;;
44078;SDS011;29744;49.078;12.878;2023-01-25T12:32:46;5.63;;;2.35;;
44078;SDS011;29744;49.078;12.878;2023-01-25T12:37:59;4.45;;;2.33;;
44078;SDS011;29744;49.078;12.878;2023-01-25T12:43:03;4.75;;;2.10;;
44078;SDS011;29744;49.078;12.878;2023-01-25T12:48:13;6.03;;;2.38;;
44078;SDS011;29744;49.078;12.878;2023-01-25T12:53:30;6.25;;;2.00;;
44078;SDS011;29744;49.078;12.878;2023-01-25T12:58:50;3.42;;;1.88;;
44078;SDS011;29744;49.078;12.878;2023-01-25T13:14:43;3.22;;;1.65;;
44078;SDS011;29744;49.078;12.878;2023-01-25T13:19:43;4.35;;;1.85;;
44078;SDS011;29744;49.078;12.878;2023-01-25T13:35:28;2.90;;;1.75;;
44078;SDS011;29744;49.078;12.878;2023-01-25T13:45:32;3.58;;;1.70;;
44078;SDS011;29744;49.078;12.878;2023-01-25T13:50:35;2.97;;;1.70;;
44078;SDS011;29744;49.078;12.878;2023-01-25T13:55:40;4.60;;;1.70;;
44078;SDS011;29744;49.078;12.878;2023-01-25T14:06:13;3.53;;;1.83;;
44078;SDS011;29744;49.078;12.878;2023-01-25T14:11:17;3.00;;;1.60;;
44078;SDS011;29744;49.078;12.878;2023-01-25T14:16:19;3.10;;;1.90;;
44078;SDS011;29744;49.078;12.878;2023-01-25T14:21:19;4.22;;;1.90;;
44078;SDS011;29744;49.078;12.878;2023-01-25T14:26:24;2.67;;;1.58;;
44078;SDS011;29744;49.078;12.878;2023-01-25T14:31:27;2.97;;;1.50;;
44078;SDS011;29744;49.078;12.878;2023-01-25T14:36:31;3.22;;;1.63;;
44078;SDS011;29744;49.078;12.878;2023-01-25T14:41:40;3.63;;;1.90;;
44078;SDS011;29744;49.078;12.878;2023-01-25T14:46:42;2.80;;;1.55;;
44078;SDS011;29744;49.078;12.878;2023-01-25T14:56:49;2.97;;;1.67;;
44078;SDS011;29744;49.078;12.878;2023-01-25T15:01:53;3.55;;;1.95;;
44078;SDS011;29744;49.078;12.878;2023-01-25T15:06:57;2.92;;;1.73;;
44078;SDS011;29744;49.078;12.878;2023-01-25T15:11:58;3.60;;;1.70;;
44078;SDS011;29744;49.078;12.878;2023-01-25T15:17:03;3.30;;;1.47;;
44078;SDS011;29744;49.078;12.878;2023-01-25T15:22:04;2.92;;;1.60;;
44078;SDS011;29744;49.078;12.878;2023-01-25T15:27:08;3.17;;;1.63;;
44078;SDS011;29744;49.078;12.878;2023-01-25T15:32:11;2.45;;;1.30;;
44078;SDS011;29744;49.078;12.878;2023-01-25T15:37:19;3.13;;;1.60;;
44078;SDS011;29744;49.078;12.878;2023-01-25T15:42:19;2.60;;;1.33;;
44078;SDS011;29744;49.078;12.878;2023-01-25T15:47:20;3.26;;;1.62;;
44078;SDS011;29744;49.078;12.878;2023-01-25T15:52:20;2.75;;;1.45;;
44078;SDS011;29744;49.078;12.878;2023-01-25T15:57:30;2.55;;;1.50;;
44078;SDS011;29744;49.078;12.878;2023-01-25T16:02:33;2.67;;;1.33;;
44078;SDS011;29744;49.078;12.878;2023-01-25T16:07:33;2.60;;;1.50;;
44078;SDS011;29744;49.078;12.878;2023-01-25T16:12:36;3.35;;;1.50;;
44078;SDS011;29744;49.078;12.878;2023-01-25T16:17:39;2.45;;;1.40;;
44078;SDS011;29744;49.078;12.878;2023-01-25T16:22:40;2.84;;;1.38;;
44078;SDS011;29744;49.078;12.878;2023-01-25T16:27:40;1.98;;;1.20;;
44078;SDS011;29744;49.078;12.878;2023-01-25T16:32:40;2.47;;;1.30;;
44078;SDS011;29744;49.078;12.878;2023-01-25T16:37:41;2.42;;;1.30;;
44078;SDS011;29744;49.078;12.878;2023-01-25T16:42:41;2.65;;;1.25;;
44078;SDS011;29744;49.078;12.878;2023-01-25T16:47:42;2.10;;;1.10;;
44078;SDS011;29744;49.078;12.878;2023-01-25T16:52:42;2.50;;;1.30;;
44078;SDS011;29744;49.078;12.878;2023-01-25T16:57:47;2.38;;;1.40;;
44078;SDS011;29744;49.078;12.878;2023-01-25T17:02:49;1.90;;;1.00;;
44078;SDS011;29744;49.078;12.878;2023-01-25T17:07:50;1.95;;;1.27;;
44078;SDS011;29744;49.078;12.878;2023-01-25T17:12:50;2.17;;;1.15;;
44078;SDS011;29744;49.078;12.878;2023-01-25T17:17:50;2.47;;;1.33;;
44078;SDS011;29744;49.078;12.878;2023-01-25T17:22:51;1.92;;;1.10;;
44078;SDS011;29744;49.078;12.878;2023-01-25T17:27:51;2.33;;;1.20;;
44078;SDS011;29744;49.078;12.878;2023-01-25T17:32:52;2.15;;;1.30;;
44078;SDS011;29744;49.078;12.878;2023-01-25T17:37:52;2.22;;;1.20;;
44078;SDS011;29744;49.078;12.878;2023-01-25T17:42:53;2.05;;;1.10;;
44078;SDS011;29744;49.078;12.878;2023-01-25T17:47:53;1.70;;;1.10;;
44078;SDS011;29744;49.078;12.878;2023-01-25T17:52:54;2.03;;;1.17;;
44078;SDS011;29744;49.078;12.878;2023-01-25T17:57:55;2.00;;;1.20;;
44078;SDS011;29744;49.078;12.878;2023-01-25T18:02:56;1.83;;;1.10;;
44078;SDS011;29744;49.078;12.878;2023-01-25T18:07:57;1.50;;;1.10;;
44078;SDS011;29744;49.078;12.878;2023-01-25T18:12:58;1.83;;;1.10;;
44078;SDS011;29744;49.078;12.878;2023-01-25T18:17:58;1.52;;;0.93;;
44078;SDS011;29744;49.078;12.878;2023-01-25T18:22:59;2.17;;;1.23;;
44078;SDS011;29744;49.078;12.878;2023-01-25T18:27:59;1.30;;;0.88;;
44078;SDS011;29744;49.078;12.878;2023-01-25T18:32:59;1.60;;;1.08;;
44078;SDS011;29744;49.078;12.878;2023-01-25T18:38:00;2.05;;;1.10;;
44078;SDS011;29744;49.078;12.878;2023-01-25T18:43:01;2.28;;;1.15;;
44078;SDS011;29744;49.078;12.878;2023-01-25T18:48:03;1.58;;;0.98;;
44078;SDS011;29744;49.078;12.878;2023-01-25T18:53:05;1.80;;;1.02;;
44078;SDS011;29744;49.078;12.878;2023-01-25T18:58:06;1.85;;;1.10;;
44078;SDS011;29744;49.078;12.878;2023-01-25T19:03:06;2.03;;;1.20;;
44078;SDS011;29744;49.078;12.878;2023-01-25T19:08:06;2.20;;;1.15;;
44078;SDS011;29744;49.078;12.878;2023-01-25T19:13:07;1.67;;;1.10;;
44078;SDS011;29744;49.078;12.878;2023-01-25T19:18:07;1.40;;;0.95;;
44078;SDS011;29744;49.078;12.878;2023-01-25T19:23:07;2.13;;;1.10;;
44078;SDS011;29744;49.078;12.878;2023-01-25T19:28:08;2.00;;;1.10;;
44078;SDS011;29744;49.078;12.878;2023-01-25T19:33:08;1.33;;;1.00;;
44078;SDS011;29744;49.078;12.878;2023-01-25T19:38:08;1.05;;;0.77;;
44078;SDS011;29744;49.078;12.878;2023-01-25T19:43:09;1.33;;;0.80;;
44078;SDS011;29744;49.078;12.878;2023-01-25T19:48:10;1.77;;;1.00;;
44078;SDS011;29744;49.078;12.878;2023-01-25T19:53:10;1.70;;;1.02;;
44078;SDS011;29744;49.078;12.878;2023-01-25T19:58:10;2.17;;;1.10;;
44078;SDS011;29744;49.078;12.878;2023-01-25T20:03:11;2.42;;;1.20;;
44078;SDS011;29744;49.078;12.878;2023-01-25T20:08:11;2.08;;;1.13;;
44078;SDS011;29744;49.078;12.878;2023-01-25T20:13:11;2.47;;;1.23;;
44078;SDS011;29744;49.078;12.878;2023-01-25T20:18:12;1.33;;;0.90;;
44078;SDS011;29744;49.078;12.878;2023-01-25T20:23:12;1.58;;;1.05;;
44078;SDS011;29744;49.078;12.878;2023-01-25T20:28:13;1.52;;;0.90;;
44078;SDS011;29744;49.078;12.878;2023-01-25T20:33:13;1.77;;;1.13;;
44078;SDS011;29744;49.078;12.878;2023-01-25T20:38:15;2.05;;;1.10;;
44078;SDS011;29744;49.078;12.878;2023-01-25T20:43:15;1.85;;;0.95;;
44078;SDS011;29744;49.078;12.878;2023-01-25T20:48:16;2.00;;;1.10;;
44078;SDS011;29744;49.078;12.878;2023-01-25T20:53:16;1.75;;;1.05;;
44078;SDS011;29744;49.078;12.878;2023-01-25T20:58:17;2.00;;;1.08;;
44078;SDS011;29744;49.078;12.878;2023-01-25T21:03:17;2.00;;;1.10;;
44078;SDS011;29744;49.078;12.878;2023-01-25T21:08:17;1.88;;;1.00;;
44078;SDS011;29744;49.078;12.878;2023-01-25T21:13:18;1.55;;;1.00;;
44078;SDS011;29744;49.078;12.878;2023-01-25T21:18:19;2.05;;;1.10;;
44078;SDS011;29744;49.078;12.878;2023-01-25T21:23:19;1.67;;;1.02;;
44078;SDS011;29744;49.078;12.878;2023-01-25T21:28:20;1.70;;;0.93;;
44078;SDS011;29744;49.078;12.878;2023-01-25T21:33:20;1.98;;;1.05;;
44078;SDS011;29744;49.078;12.878;2023-01-25T21:38:21;1.63;;;0.90;;
44078;SDS011;29744;49.078;12.878;2023-01-25T21:43:21;1.75;;;1.10;;
44078;SDS011;29744;49.078;12.878;2023-01-25T21:48:21;1.67;;;1.00;;
44078;SDS011;29744;49.078;12.878;2023-01-25T21:53:40;1.55;;;0.90;;
44078;SDS011;29744;49.078;12.878;2023-01-25T21:58:41;1.33;;;0.85;;
44078;SDS011;29744;49.078;12.878;2023-01-25T22:03:41;1.83;;;0.90;;
44078;SDS011;29744;49.078;12.878;2023-01-25T22:08:46;1.67;;;1.00;;
44078;SDS011;29744;49.078;12.878;2023-01-25T22:13:46;1.75;;;1.00;;
44078;SDS011;29744;49.078;12.878;2023-01-25T22:18:46;1.38;;;1.00;;
44078;SDS011;29744;49.078;12.878;2023-01-25T22:23:48;2.20;;;1.00;;
44078;SDS011;29744;49.078;12.878;2023-01-25T22:28:55;1.90;;;1.10;;
44078;SDS011;29744;49.078;12.878;2023-01-25T22:33:57;1.63;;;0.90;;
44078;SDS011;29744;49.078;12.878;2023-01-25T22:38:58;1.40;;;0.80;;
44078;SDS011;29744;49.078;12.878;2023-01-25T22:44:01;1.50;;;1.00;;
44078;SDS011;29744;49.078;12.878;2023-01-25T22:49:01;0.93;;;0.73;;
44078;SDS011;29744;49.078;12.878;2023-01-25T22:54:03;2.00;;;1.10;;
44078;SDS011;29744;49.078;12.878;2023-01-25T22:59:04;1.48;;;1.00;;
44078;SDS011;29744;49.078;12.878;2023-01-25T23:04:05;1.45;;;0.80;;
44078;SDS011;29744;49.078;12.878;2023-01-25T23:09:06;1.75;;;1.00;;
44078;SDS011;29744;49.078;12.878;2023-01-25T23:14:07;2.70;;;1.30;;
44078;SDS011;29744;49.078;12.878;2023-01-25T23:19:28;1.63;;;0.90;;
44078;SDS011;29744;49.078;12.878;2023-01-25T23:24:28;1.55;;;0.98;;
44078;SDS011;29744;49.078;12.878;2023-01-25T23:29:29;1.75;;;1.00;;
44078;SDS011;29744;49.078;12.878;2023-01-25T23:34:30;1.48;;;0.90;;
44078;SDS011;29744;49.078;12.878;2023-01-25T23:39:33;1.85;;;1.00;;
44078;SDS011;29744;49.078;12.878;2023-01-25T23:44:33;2.22;;;1.10;;
44078;SDS011;29744;49.078;12.878;2023-01-25T23:49:34;1.95;;;0.90;;
44078;SDS011;29744;49.078;12.878;2023-01-25T23:54:34;1.60;;;0.93;;
44078;SDS011;29744;49.078;12.878;2023-01-25T23:59:34;1.40;;;0.90;;
